Terminal Aerodrome Forecast
Issued by NWS

Home | Current Version | Previous Version | Text Only | Print | Product List | Glossary On
Versions: 1 2 3 4 5 6 7 8 9 10 11 12 13 14 15
000
FTUS46 KPDT 250200 AAA
TAFDLS
TAF AMD
KDLS 250212Z 2502/2524 VRB05KT P6SM BKN015 OVC030
      TEMPO 2502/2506 SCT020 OVC050
     FM250600 08007KT P6SM SCT020 OVC040
     FM251000 09005KT P6SM BKN008 OVC025
     FM251800 08005KT P6SM VCSH BKN070 OVC120=

USA.gov is the U.S. government's official web portal to all federal, state and local government web resources and services.